Flight Track Log - Related Links

Times and Time Zones

All times are in EDT time to prevent confusion due to time zone crossing. See the EGC591 flight status page for this flight to view local times or setup timezone preferences in your user account.

Time Position Orientation Groundspeed Altitude Reporting Facility
EDT Latitude Longitude Course Direction KTS MPH feet Rate Location/Type
Thu 01:08:46 PM 46.7214 -100.5736 120° Southeast 245 282 9,800  Level Minneapolis Center
Thu 01:09:48 PM 46.6836 -100.4681 118° Southeast 287 330 13,300 3,290 Climbing Minneapolis Center
Thu 01:10:50 PM 46.6456 -100.3608 117° Southeast 294 338 16,600 2,903 Climbing Minneapolis Center
Thu 01:11:52 PM 46.6028 -100.2475 119° Southeast 310 357 19,300 2,710 Climbing Minneapolis Center
Thu 01:12:54 PM 46.5567 -100.1256 119° Southeast 332 382 22,200 3,048 Climbing Minneapolis Center
Thu 01:13:00 PM 46.4600 -99.9107 119° Southeast  Level Estimated
Thu 01:13:56 PM 46.4981 -99.9731 119° Southeast 354 407 25,600  Level Minneapolis Center
Thu 01:14:00 PM 46.4073 -99.7724 120° Southeast  Level Estimated
Thu 01:14:58 PM 46.4486 -99.8442 119° Southeast 362 417 28,300  Level Minneapolis Center
Thu 01:16:00 PM 46.3992 -99.7139 119° Southeast 368 423 30,400 1,984 Climbing Minneapolis Center
Thu 01:17:02 PM 46.3461 -99.5775 119° Southeast 380 437 32,400 1,548 Climbing Minneapolis Center
Thu 01:18:04 PM 46.3039 -99.4683 119° Southeast 385 443 33,600 1,645 Climbing Minneapolis Center
Thu 01:19:06 PM 46.2317 -99.2842 119° Southeast 395 455 35,800 1,935 Climbing Minneapolis Center
Thu 01:20:08 PM 46.1783 -99.1458 119° Southeast 397 457 37,600 1,597 Climbing Minneapolis Center
Thu 01:21:10 PM 46.1253 -99.0122 120° Southeast 392 451 39,100 1,306 Climbing Minneapolis Center
Thu 01:22:12 PM 46.0675 -98.8661 120° Southeast 385 443 40,300 919 Climbing Minneapolis Center
Thu 01:23:14 PM 46.0147 -98.7317 119° Southeast 385 443 41,000 336 Climbing Minneapolis Center
Thu 01:24:17 PM 45.9586 -98.5939 120° Southeast 390 449 41,000  Level Minneapolis Center
Thu 01:25:19 PM 45.8994 -98.4461 120° Southeast 409 471 41,000  Level Minneapolis Center
Thu 01:26:21 PM 45.8253 -98.2631 120° Southeast 432 497 41,000  Level Minneapolis Center
Thu 01:27:23 PM 45.7633 -98.1094 120° Southeast 440 506 41,000  Level Minneapolis Center
Thu 01:28:25 PM 45.7031 -97.9639 121° Southeast 448 516 41,000  Level Minneapolis Center
Thu 01:29:27 PM 45.6411 -97.8139 121° Southeast 441 507 41,000  Level Minneapolis Center
Thu 01:30:29 PM 45.5781 -97.6633 121° Southeast 442 509 41,000  Level Minneapolis Center
Thu 01:31:31 PM 45.5025 -97.4817 121° Southeast 445 512 41,000  Level Minneapolis Center
Thu 01:32:33 PM 45.4400 -97.3297 120° Southeast 446 513 41,000  Level Minneapolis Center
Thu 01:33:35 PM 45.3769 -97.1811 121° Southeast 441 507 41,000  Level Minneapolis Center
Thu 01:34:37 PM 45.3128 -97.0319 121° Southeast 442 509 41,000  Level Minneapolis Center
Thu 01:35:39 PM 45.2503 -96.8831 121° Southeast 440 506 41,000  Level Minneapolis Center
Thu 01:36:41 PM 45.1864 -96.7339 121° Southeast 442 509 41,000  Level Minneapolis Center
Thu 01:37:43 PM 45.1100 -96.5556 121° Southeast 442 509 41,000  Level Minneapolis Center
Thu 01:38:45 PM 45.0450 -96.4069 122° Southeast 444 511 41,000  Level Minneapolis Center
Thu 01:39:47 PM 44.9811 -96.2572 121° Southeast 445 512 41,000  Level Minneapolis Center
Thu 01:40:50 PM 44.9156 -96.1089 122° Southeast 445 512 41,000  Level Minneapolis Center
Thu 01:41:52 PM 44.8494 -95.9589 122° Southeast 448 516 41,000  Level Minneapolis Center
Thu 01:42:54 PM 44.7850 -95.8103 121° Southeast 444 511 41,000  Level Minneapolis Center
Thu 01:43:56 PM 44.7053 -95.6333 122° Southeast 444 511 41,000  Level Minneapolis Center
Thu 01:44:58 PM 44.6394 -95.4856 122° Southeast 444 511 41,000  Level Minneapolis Center
Thu 01:46:00 PM 44.5744 -95.3408 122° Southeast 439 505 41,000  Level Minneapolis Center
Thu 01:47:02 PM 44.5108 -95.2008 122° Southeast 430 495 41,000  Level Minneapolis Center
Thu 01:48:04 PM 44.4489 -95.0603 122° Southeast 425 489 41,000  Level Minneapolis Center
Thu 01:49:06 PM 44.3850 -94.9181 122° Southeast 429 494 41,000  Level Minneapolis Center
Thu 01:50:08 PM 44.3200 -94.7778 123° Southeast 430 495 41,000  Level Minneapolis Center
Thu 01:51:10 PM 44.2422 -94.6097 123° Southeast 430 495 41,000  Level Minneapolis Center
Thu 01:52:12 PM 44.1756 -94.4675 123° Southeast 426 490 41,000  Level Minneapolis Center
Thu 01:53:14 PM 44.1117 -94.3303 123° Southeast 426 490 41,000  Level Minneapolis Center
Thu 01:54:16 PM 44.0478 -94.1939 123° Southeast 425 489 41,000  Level Minneapolis Center
Thu 01:55:18 PM 43.9847 -94.0575 123° Southeast 423 487 41,000  Level Minneapolis Center
Thu 01:56:20 PM 43.9197 -93.9214 124° Southeast 425 489 41,000  Level Minneapolis Center
Thu 01:57:23 PM 43.8428 -93.7586 123° Southeast 425 489 41,000  Level Minneapolis Center
Thu 01:58:25 PM 43.7769 -93.6225 124° Southeast 426 490 41,000  Level Minneapolis Center
Thu 01:59:27 PM 43.7108 -93.4828 123° Southeast 430 495 41,000  Level Minneapolis Center
Thu 02:00:29 PM 43.6442 -93.3464 124° Southeast 432 497 41,000  Level Minneapolis Center
Thu 02:01:31 PM 43.5786 -93.2089 123° Southeast 432 497 41,000  Level Minneapolis Center
Thu 02:02:33 PM 43.4981 -93.0419 124° Southeast 438 504 41,000  Level Minneapolis Center
Thu 02:03:35 PM 43.4328 -92.9094 124° Southeast 433 498 41,000  Level Minneapolis Center
Thu 02:04:37 PM 43.3661 -92.7736 124° Southeast 434 499 41,000  Level Minneapolis Center
Thu 02:05:39 PM 43.3003 -92.6403 124° Southeast 429 494 41,000  Level Minneapolis Center
Thu 02:06:41 PM 43.2333 -92.5047 124° Southeast 431 496 41,000  Level Minneapolis Center
Thu 02:07:43 PM 43.1539 -92.3461 124° Southeast 427 491 41,000  Level Minneapolis Center
Thu 02:08:45 PM 43.0872 -92.2114 124° Southeast 430 495 41,000  Level Minneapolis Center
Thu 02:09:47 PM 43.0208 -92.0797 125° Southeast 426 490 41,000  Level Minneapolis Center
Thu 02:10:49 PM 42.9536 -91.9456 124° Southeast 429 494 41,000  Level Minneapolis Center
Thu 02:11:52 PM 42.8867 -91.8136 125° Southeast 428 493 41,000  Level Minneapolis Center
Thu 02:12:54 PM 42.8139 -91.6683 124° Southeast 426 490 41,000  Level Minneapolis Center
Thu 02:13:56 PM 42.7467 -91.5361 125° Southeast 425 489 41,000  Level Minneapolis Center
Thu 02:14:58 PM 42.6642 -91.3786 125° Southeast 431 496 41,000  Level Minneapolis Center
Thu 02:16:01 PM 42.5975 -91.2489 125° Southeast 428 493 41,000  Level Chicago Center
Thu 02:17:03 PM 42.5297 -91.1175 125° Southeast 427 491 41,000  Level Chicago Center
Thu 02:18:05 PM 42.4619 -90.9881 125° Southeast 426 490 41,000  Level Chicago Center
Thu 02:19:07 PM 42.3933 -90.8592 126° Southeast 425 489 41,000  Level Chicago Center
Thu 02:20:09 PM 42.3119 -90.7033 125° Southeast 426 490 41,000  Level Chicago Center
Thu 02:21:11 PM 42.2439 -90.5742 125° Southeast 425 489 41,000  Level Chicago Center
Thu 02:22:13 PM 42.1761 -90.4456 125° Southeast 425 489 41,000  Level Chicago Center
Thu 02:23:15 PM 42.1072 -90.3175 126° Southeast 426 490 41,000  Level Chicago Center
Thu 02:24:17 PM 42.0394 -90.1886 125° Southeast 426 490 41,000  Level Chicago Center
Thu 02:25:19 PM 41.9564 -90.0336 126° Southeast 429 494 41,000 -144 Level Chicago Center
Thu 02:26:22 PM 41.8864 -89.9036 126° Southeast 427 491 40,700 -1,008 Descending Chicago Center
Thu 02:27:24 PM 41.8094 -89.7644 127° Southeast 425 489 38,900 -1,742 Descending Chicago Center
Thu 02:28:26 PM 41.7364 -89.6283 126° Southeast 439 505 37,100 -1,548 Descending Chicago Center
Thu 02:29:28 PM 41.6664 -89.4997 126° Southeast 440 506 35,700 -1,016 Descending Chicago Center
Thu 02:30:30 PM 41.5931 -89.3683 127° Southeast 443 510 35,000 -339 Descending Chicago Center
Thu 02:31:32 PM 41.5181 -89.2300 126° Southeast 440 506 35,000  Level Chicago Center
Thu 02:32:34 PM 41.4375 -89.0850 127° Southeast 433 498 35,000 -97 Level Chicago Center
Thu 02:33:36 PM 41.3636 -88.9536 127° Southeast 444 511 34,800 -768 Descending Chicago Center
Thu 02:34:39 PM 41.2917 -88.8231 126° Southeast 443 510 33,400 -1,344 Descending Chicago Center
Thu 02:35:41 PM 41.2186 -88.6944 127° Southeast 441 507 32,000 -1,403 Descending Chicago Center
Thu 02:36:43 PM 41.1436 -88.5589 126° Southeast 458 527 30,500 -1,548 Descending Chicago Center
Thu 02:37:45 PM 41.0544 -88.4039 127° Southeast 447 514 28,800 -1,403 Descending Chicago Center
Thu 02:38:47 PM 40.9844 -88.2794 127° Southeast 431 496 27,600 -871 Descending Chicago Center
Thu 02:39:49 PM 40.9156 -88.1581 127° Southeast 421 484 27,000 -581 Descending Chicago Center
Thu 02:40:51 PM 40.8475 -88.0381 127° Southeast 415 478 26,400 -1,065 Descending Chicago Center
Thu 02:41:53 PM 40.7644 -87.8956 128° Southeast 413 475 24,800 -1,355 Descending Chicago Center
Thu 02:42:55 PM 40.6961 -87.7747 127° Southeast 415 478 23,600 -1,306 Descending Chicago Center
Thu 02:43:57 PM 40.6283 -87.6575 127° Southeast 407 468 22,100 -1,392 Descending Chicago Center
Thu 02:45:00 PM 40.5575 -87.5372 128° Southeast 415 478 20,700 -1,392 Descending Chicago Center
Thu 02:46:02 PM 40.4878 -87.4206 128° Southeast 410 472 19,200 -1,548 Descending Chicago Center
Thu 02:47:04 PM 40.4117 -87.2914 128° Southeast 400 460 17,500 -1,645 Descending Chicago Center
Thu 02:48:06 PM 40.3475 -87.1839 128° Southeast 380 437 15,800 -1,694 Descending Chicago Center
Thu 02:49:08 PM 40.2850 -87.0772 128° Southeast 373 429 14,000 -1,355 Descending Chicago Center
Thu 02:50:10 PM 40.2272 -86.9775 127° Southeast 353 406 13,000 -1,258 Descending Chicago Center
Thu 02:51:12 PM 40.1600 -86.8739 130° Southeast 316 364 11,400 -1,403 Descending Chicago Center
Thu 02:52:14 PM 40.1131 -86.7908 126° Southeast 291 335 10,100 -1,597 Descending Chicago Center
Thu 02:53:16 PM 40.0594 -86.7261 137° Southeast 274 315 8,100 -2,136 Descending Chicago Center
Thu 02:54:12 PM 40.0033 -86.6703 143° Southeast 261 300 5,900 -1,831 Descending Indianapolis Center
Thu 02:55:14 PM 39.9697 -86.5900 119° Southeast 255 293 4,500 -1,161 Descending Indianapolis Center
Thu 02:56:16 PM 39.9339 -86.5125 121° Southeast 254 292 3,500 -726 Descending Indianapolis Center
Thu 02:57:18 PM 39.8967 -86.4283 120° Southeast 249 287 3,000 -484 Descending Indianapolis Center

Login

Don't have an account? Register now (free) for customized features, flight alerts, and more!